Time;durP1;ratioP1;P1;durP2;ratioP2;P2;SDS_P1;SDS_P2;PMS_P1;PMS_P2;Temp;Humidity;BMP_temperature;BMP_pressure;BME280_temperature;BME280_humidity;BME280_pressure;Samples;Min_cycle;Max_cycle;Signal;HPM_P1;HPM_P2
2023/03/17 00:00:16;;;;;;;2.25;1.52;;;;;;;8.12;100.00;100528.22;4894120;29;20142;-82
2023/03/17 00:02:44;;;;;;;3.03;1.25;;;;;;;8.13;100.00;100538.13;4910969;29;20532;-83
2023/03/17 00:05:16;;;;;;;3.10;1.27;;;;;;;8.17;100.00;100534.19;4895686;29;20028;-82
2023/03/17 00:07:43;;;;;;;3.33;1.58;;;;;;;8.15;100.00;100532.56;4918695;29;20032;-81
2023/03/17 00:10:21;;;;;;;5.28;1.40;;;;;;;8.05;100.00;100525.06;4928609;29;20165;-83
2023/03/17 00:12:48;;;;;;;1.63;1.15;;;;;;;8.07;100.00;100530.41;4926778;29;20039;-83
2023/03/17 00:15:14;;;;;;;2.92;1.30;;;;;;;8.02;100.00;100528.03;4910219;29;20493;-83
2023/03/17 00:17:41;;;;;;;3.13;1.50;;;;;;;8.17;100.00;100533.34;4941805;29;20091;-81
2023/03/17 00:20:13;;;;;;;3.10;1.55;;;;;;;8.22;100.00;100523.81;4925255;29;20035;-81
2023/03/17 00:22:39;;;;;;;4.00;1.80;;;;;;;8.21;100.00;100530.22;4943168;29;20028;-81
2023/03/17 00:25:29;;;;;;;3.35;1.70;;;;;;;8.32;100.00;100534.03;4931302;29;20399;-82
2023/03/17 00:27:57;;;;;;;1.83;1.23;;;;;;;8.21;100.00;100541.16;4923651;29;20035;-81
2023/03/17 00:30:23;;;;;;;3.83;1.58;;;;;;;8.09;100.00;100531.16;4911480;29;20047;-81
2023/03/17 00:32:51;;;;;;;4.03;1.60;;;;;;;8.16;100.00;100535.16;4878314;29;20032;-81
2023/03/17 00:35:20;;;;;;;6.35;1.67;;;;;;;8.14;100.00;100541.75;4892965;29;20491;-81
2023/03/17 00:37:47;;;;;;;3.45;1.38;;;;;;;8.06;100.00;100531.38;4912199;29;20098;-81
2023/03/17 00:40:16;;;;;;;3.17;1.58;;;;;;;8.08;100.00;100523.97;4907938;29;20587;-81
2023/03/17 00:42:41;;;;;;;3.15;1.35;;;;;;;7.84;100.00;100510.31;4940669;29;20035;-82
2023/03/17 00:45:08;;;;;;;2.20;1.70;;;;;;;7.97;100.00;100505.69;4911882;29;20040;-81
2023/03/17 00:47:34;;;;;;;3.35;1.67;;;;;;;7.97;100.00;100515.69;4927161;29;20050;-82
2023/03/17 00:49:59;;;;;;;2.33;1.60;;;;;;;7.97;100.00;100511.13;4895866;29;20031;-82
2023/03/17 00:52:25;;;;;;;6.43;1.67;;;;;;;7.89;100.00;100502.66;4879285;29;20176;-81
2023/03/17 00:54:51;;;;;;;4.32;1.35;;;;;;;7.93;100.00;100500.56;4910141;29;20064;-82
2023/03/17 00:57:17;;;;;;;1.90;1.30;;;;;;;7.91;100.00;100509.72;4906577;29;20130;-81
2023/03/17 00:59:43;;;;;;;7.72;1.60;;;;;;;7.91;100.00;100507.00;4900344;29;20032;-82
2023/03/17 01:02:12;;;;;;;2.45;1.30;;;;;;;7.96;100.00;100511.25;4905275;29;20036;-81
2023/03/17 01:04:40;;;;;;;1.98;1.33;;;;;;;7.82;100.00;100510.41;4890104;29;20089;-82
2023/03/17 01:07:06;;;;;;;3.17;1.52;;;;;;;7.80;100.00;100506.03;4910311;29;20500;-81
2023/03/17 01:09:32;;;;;;;5.53;1.83;;;;;;;7.69;100.00;100491.38;4912992;29;20066;-82
2023/03/17 01:11:59;;;;;;;3.13;1.58;;;;;;;7.70;100.00;100498.53;4891806;29;20044;-82
2023/03/17 01:14:25;;;;;;;1.30;1.13;;;;;;;7.67;100.00;100493.34;4924860;29;20040;-83
2023/03/17 01:16:51;;;;;;;4.68;1.67;;;;;;;7.61;100.00;100493.78;4921261;29;20051;-82
2023/03/17 01:19:17;;;;;;;2.65;1.67;;;;;;;7.60;100.00;100511.09;4907827;29;20035;-82
2023/03/17 01:21:44;;;;;;;2.10;1.60;;;;;;;7.56;100.00;100515.03;4924310;29;20047;-82
2023/03/17 01:24:10;;;;;;;4.25;1.83;;;;;;;7.53;100.00;100502.50;4901927;29;20036;-81
2023/03/17 01:26:35;;;;;;;4.85;1.60;;;;;;;7.59;100.00;100512.09;4939607;29;20402;-81
2023/03/17 01:29:05;;;;;;;1.65;1.15;;;;;;;7.62;100.00;100508.25;4915748;29;20440;-82
2023/03/17 01:31:31;;;;;;;1.77;1.33;;;;;;;7.56;100.00;100498.69;4907654;29;20043;-82
2023/03/17 01:33:56;;;;;;;4.72;1.50;;;;;;;7.67;100.00;100508.78;4908554;29;20028;-81
2023/03/17 01:36:22;;;;;;;3.05;1.42;;;;;;;7.74;100.00;100496.47;4875023;29;20445;-82
2023/03/17 01:38:49;;;;;;;4.72;1.60;;;;;;;7.56;100.00;100485.06;4912333;29;20095;-82
2023/03/17 01:41:19;;;;;;;1.60;1.25;;;;;;;7.59;100.00;100486.69;4926111;29;20043;-81
2023/03/17 01:43:45;;;;;;;3.33;1.50;;;;;;;7.39;100.00;100483.53;4899638;29;20039;-82
2023/03/17 01:46:14;;;;;;;4.80;1.60;;;;;;;7.43;100.00;100481.47;4877018;29;20036;-81
2023/03/17 01:48:57;;;;;;;4.63;1.45;;;;;;;7.45;100.00;100474.94;4909253;29;20046;-81
2023/03/17 01:51:31;;;;;;;2.45;1.65;;;;;;;7.41;100.00;100469.81;4909884;29;20046;-81
2023/03/17 01:54:00;;;;;;;2.55;1.27;;;;;;;7.40;100.00;100468.97;4925108;29;20038;-82
2023/03/17 01:56:25;;;;;;;2.45;1.40;;;;;;;7.35;100.00;100463.84;4943420;28;20440;-81
2023/03/17 01:58:54;;;;;;;3.03;1.40;;;;;;;7.33;100.00;100462.22;4893824;29;20052;-82
2023/03/17 02:01:29;;;;;;;3.45;1.30;;;;;;;7.30;100.00;100470.59;4925108;29;20047;-82
2023/03/17 02:03:55;;;;;;;1.73;1.30;;;;;;;7.34;100.00;100472.97;4950170;29;20056;-81
2023/03/17 02:06:21;;;;;;;3.55;1.10;;;;;;;7.33;100.00;100460.38;4921988;29;20593;-81
2023/03/17 02:08:47;;;;;;;4.03;1.27;;;;;;;7.27;100.00;100465.38;4930798;29;20036;-81
2023/03/17 02:11:13;;;;;;;4.05;1.50;;;;;;;7.28;100.00;100458.94;4945379;29;20035;-81
2023/03/17 02:13:40;;;;;;;2.17;1.20;;;;;;;7.18;100.00;100454.16;4918616;29;20036;-82
2023/03/17 02:16:06;;;;;;;2.50;1.38;;;;;;;7.22;100.00;100456.66;4927379;29;20058;-82
2023/03/17 02:18:32;;;;;;;1.90;1.40;;;;;;;7.22;100.00;100459.41;4913257;29;20106;-81
2023/03/17 02:21:10;;;;;;;2.03;1.25;;;;;;;7.09;100.00;100456.66;4910707;29;20095;-82
2023/03/17 02:23:36;;;;;;;3.33;1.52;;;;;;;7.31;100.00;100456.88;4923420;29;20118;-80
2023/03/17 02:26:02;;;;;;;2.45;1.20;;;;;;;7.28;100.00;100461.66;4920484;29;20131;-82
2023/03/17 02:28:30;;;;;;;4.40;1.60;;;;;;;7.21;100.00;100454.91;4911835;29;20039;-82
2023/03/17 02:30:56;;;;;;;6.07;1.50;;;;;;;7.23;100.00;100456.56;4908482;29;20038;-81
2023/03/17 02:33:22;;;;;;;1.77;1.30;;;;;;;7.24;100.00;100451.97;4910628;29;20032;-82
2023/03/17 02:35:47;;;;;;;1.38;1.10;;;;;;;7.26;100.00;100450.00;4909611;29;20040;-82
2023/03/17 02:38:13;;;;;;;2.03;1.63;;;;;;;7.29;100.00;100452.50;4891937;29;20040;-83
2023/03/17 02:43:29;;;;;;;2.97;1.10;;;;;;;7.04;100.00;100437.06;4928188;29;20047;-81
2023/03/17 02:45:55;;;;;;;2.33;1.30;;;;;;;7.25;100.00;100442.84;4925094;29;20043;-82
2023/03/17 02:48:21;;;;;;;1.40;1.10;;;;;;;7.09;100.00;100441.19;4908717;29;20042;-82
2023/03/17 02:50:47;;;;;;;3.55;1.30;;;;;;;7.08;100.00;100438.59;4911617;29;20126;-82
2023/03/17 02:53:12;;;;;;;2.42;1.58;;;;;;;7.16;100.00;100425.28;4912332;29;20114;-82
2023/03/17 02:55:38;;;;;;;3.47;1.40;;;;;;;7.11;100.00;100425.63;4895583;29;20060;-82
2023/03/17 02:58:03;;;;;;;1.75;1.27;;;;;;;7.26;100.00;100439.97;4890029;29;20058;-81
2023/03/17 03:00:29;;;;;;;2.70;1.33;;;;;;;7.34;100.00;100444.88;4889035;29;20028;-82
2023/03/17 03:02:55;;;;;;;3.72;1.40;;;;;;;7.39;100.00;100439.97;4921755;29;20063;-82
2023/03/17 03:05:21;;;;;;;4.63;1.30;;;;;;;7.30;100.00;100436.06;4888818;29;20039;-81
2023/03/17 03:07:46;;;;;;;3.10;1.33;;;;;;;7.18;100.00;100429.66;4908830;29;20051;-82
2023/03/17 03:10:12;;;;;;;2.30;1.10;;;;;;;7.22;100.00;100426.72;4922084;29;20059;-82
2023/03/17 03:12:39;;;;;;;4.43;1.40;;;;;;;7.15;100.00;100431.75;4892796;29;20044;-81
2023/03/17 03:15:05;;;;;;;4.57;1.30;;;;;;;7.18;100.00;100424.22;4904144;29;20032;-82
2023/03/17 03:17:31;;;;;;;3.72;1.30;;;;;;;7.30;100.00;100419.72;4908348;29;20043;-81
2023/03/17 03:19:57;;;;;;;4.72;1.20;;;;;;;7.31;100.00;100423.31;4899190;29;20043;-81
2023/03/17 03:22:23;;;;;;;2.90;1.40;;;;;;;7.27;100.00;100421.81;4925064;29;20054;-80
2023/03/17 03:24:48;;;;;;;2.83;1.38;;;;;;;7.21;100.00;100419.53;4907644;29;20043;-81
2023/03/17 03:27:14;;;;;;;6.35;1.65;;;;;;;7.21;100.00;100416.81;4891395;29;20062;-81
2023/03/17 03:29:40;;;;;;;3.63;1.08;;;;;;;7.23;100.00;100415.72;4908739;29;20509;-81
2023/03/17 03:32:07;;;;;;;7.95;1.90;;;;;;;7.27;100.00;100422.66;4916804;29;20044;-81
2023/03/17 03:34:33;;;;;;;2.72;1.40;;;;;;;7.41;100.00;100428.97;4930736;29;20027;-80
2023/03/17 03:36:58;;;;;;;2.03;1.05;;;;;;;7.18;100.00;100391.53;4911867;29;20055;-81
2023/03/17 03:39:27;;;;;;;3.35;1.40;;;;;;;7.28;100.00;100429.88;4910720;29;20035;-82
2023/03/17 03:41:56;;;;;;;4.85;1.50;;;;;;;7.34;100.00;100423.94;4923613;29;20118;-82
2023/03/17 03:44:21;;;;;;;3.13;1.52;;;;;;;7.34;100.00;100443.03;4912753;29;20472;-81
2023/03/17 03:46:47;;;;;;;3.20;1.30;;;;;;;7.41;100.00;100438.03;4924720;29;20035;-81
2023/03/17 03:49:12;;;;;;;2.50;1.58;;;;;;;7.43;100.00;100422.44;4892449;29;20115;-81
2023/03/17 03:51:38;;;;;;;7.78;1.80;;;;;;;7.41;100.00;100443.47;4908939;29;20035;-82
2023/03/17 03:54:03;;;;;;;1.52;1.27;;;;;;;7.31;100.00;100445.09;4908571;29;20031;-82
2023/03/17 03:56:29;;;;;;;5.13;1.60;;;;;;;7.33;100.00;100433.13;4908737;29;20048;-81
2023/03/17 03:58:55;;;;;;;2.13;1.50;;;;;;;7.35;100.00;100431.16;4907895;29;20036;-81
2023/03/17 04:01:20;;;;;;;4.28;1.33;;;;;;;7.36;100.00;100429.28;4908759;29;20098;-81
2023/03/17 04:03:46;;;;;;;3.35;1.63;;;;;;;7.39;100.00;100437.25;4887627;29;20095;-81
2023/03/17 04:06:11;;;;;;;3.10;1.30;;;;;;;7.37;100.00;100444.66;4909911;29;20031;-81
2023/03/17 04:08:37;;;;;;;2.85;1.40;;;;;;;7.42;100.00;100456.09;4911349;29;20043;-80
2023/03/17 04:11:02;;;;;;;3.50;1.50;;;;;;;7.39;100.00;100463.63;4926416;29;20091;-81
2023/03/17 04:13:28;;;;;;;2.88;1.65;;;;;;;7.34;100.00;100458.50;4943093;29;20082;-81
2023/03/17 04:15:53;;;;;;;2.85;1.67;;;;;;;7.19;100.00;100446.84;4895956;29;20411;-80
2023/03/17 04:18:19;;;;;;;3.72;1.85;;;;;;;7.24;100.00;100449.25;4908672;29;20039;-80
2023/03/17 04:20:44;;;;;;;2.90;1.60;;;;;;;7.28;100.00;100448.03;4879004;29;20047;-81
2023/03/17 04:23:10;;;;;;;2.20;1.40;;;;;;;7.24;100.00;100449.25;4902763;29;20084;-81
2023/03/17 04:25:36;;;;;;;2.95;1.90;;;;;;;7.31;100.00;100453.28;4926923;29;20040;-81
2023/03/17 04:28:02;;;;;;;5.05;1.92;;;;;;;7.18;100.00;100446.00;4910446;29;20473;-81
2023/03/17 04:30:28;;;;;;;2.33;1.70;;;;;;;7.04;100.00;100434.34;4897053;29;20051;-81
2023/03/17 04:32:53;;;;;;;2.25;1.77;;;;;;;7.01;100.00;100440.88;4898233;29;20035;-81
2023/03/17 04:35:21;;;;;;;2.58;1.60;;;;;;;7.21;100.00;100453.06;4911724;29;20067;-81
2023/03/17 04:37:47;;;;;;;2.75;1.40;;;;;;;7.11;100.00;100447.41;4895130;29;20067;-80
2023/03/17 04:40:15;;;;;;;4.65;1.70;;;;;;;7.10;100.00;100442.94;4898808;29;20047;-81
2023/03/17 04:42:40;;;;;;;3.50;1.63;;;;;;;7.11;100.00;100438.38;4946897;29;20040;-81
2023/03/17 04:45:10;;;;;;;7.28;1.70;;;;;;;7.21;100.00;100449.47;4917062;29;20051;-81
2023/03/17 04:47:36;;;;;;;3.08;1.80;;;;;;;7.17;100.00;100446.97;4920774;29;20070;-80
2023/03/17 04:50:02;;;;;;;6.43;1.90;;;;;;;7.13;100.00;100456.34;4922285;29;20043;-80
2023/03/17 04:52:28;;;;;;;5.40;1.70;;;;;;;7.16;100.00;100463.41;4883840;29;20040;-82
2023/03/17 04:54:53;;;;;;;4.70;1.77;;;;;;;7.23;100.00;100461.13;4908800;29;20027;-81
2023/03/17 04:57:19;;;;;;;3.55;1.98;;;;;;;7.18;100.00;100458.72;4896935;29;20436;-81
2023/03/17 04:59:45;;;;;;;3.78;1.80;;;;;;;7.17;100.00;100466.03;4906119;29;20048;-82
2023/03/17 05:02:10;;;;;;;4.40;1.80;;;;;;;7.04;100.00;100446.09;4888379;29;20186;-81
2023/03/17 05:04:36;;;;;;;2.58;1.65;;;;;;;7.18;100.00;100450.56;4873786;29;20044;-82
2023/03/17 05:07:02;;;;;;;2.85;1.50;;;;;;;7.11;100.00;100446.53;4873780;29;20036;-82
2023/03/17 05:09:27;;;;;;;5.38;1.48;;;;;;;7.09;100.00;100448.50;4917893;29;20521;-83
2023/03/17 05:11:54;;;;;;;2.58;1.80;;;;;;;7.03;100.00;100444.34;4878222;29;20039;-82
2023/03/17 05:14:20;;;;;;;4.10;1.80;;;;;;;7.06;100.00;100446.84;4890250;29;20036;-83
2023/03/17 05:16:47;;;;;;;3.90;1.70;;;;;;;7.06;100.00;100435.13;4904908;29;20036;-82
2023/03/17 05:19:13;;;;;;;5.55;1.55;;;;;;;7.09;100.00;100434.91;4903786;29;20039;-81
2023/03/17 05:21:38;;;;;;;3.30;1.75;;;;;;;7.15;100.00;100434.47;4905908;29;20028;-81
2023/03/17 05:24:05;;;;;;;3.28;1.70;;;;;;;7.09;100.00;100443.91;4905033;29;20032;-82
2023/03/17 05:26:31;;;;;;;4.40;1.77;;;;;;;7.09;100.00;100445.78;4889101;29;20043;-81
2023/03/17 05:28:56;;;;;;;2.67;1.45;;;;;;;6.98;100.00;100436.53;4889919;29;20141;-83
2023/03/17 05:31:22;;;;;;;4.45;1.60;;;;;;;7.05;100.00;100439.69;4905760;29;20127;-86
2023/03/17 05:33:48;;;;;;;3.85;1.25;;;;;;;7.10;100.00;100431.16;4886859;29;20416;-80
2023/03/17 05:36:14;;;;;;;3.72;1.70;;;;;;;7.11;100.00;100444.69;4891449;29;20032;-82
2023/03/17 05:38:40;;;;;;;2.63;1.45;;;;;;;7.14;100.00;100443.59;4866501;29;20569;-82
2023/03/17 05:41:06;;;;;;;5.55;1.40;;;;;;;7.14;100.00;100438.16;4889001;29;20043;-81
2023/03/17 05:43:32;;;;;;;4.63;2.70;;;;;;;7.12;100.00;100432.81;4915639;29;20404;-80
2023/03/17 05:45:58;;;;;;;2.45;1.50;;;;;;;7.11;100.00;100420.19;4922705;29;20044;-80
2023/03/17 05:48:24;;;;;;;4.45;1.73;;;;;;;7.22;100.00;100430.31;4900975;29;20076;-80
2023/03/17 05:50:52;;;;;;;3.53;1.80;;;;;;;7.28;100.00;100426.25;4892129;29;20043;-82
2023/03/17 05:53:17;;;;;;;2.47;1.48;;;;;;;7.36;100.00;100421.13;4904980;29;20041;-82
2023/03/17 05:55:43;;;;;;;7.30;1.50;;;;;;;7.16;100.00;100422.56;4898337;29;20064;-82
2023/03/17 05:58:09;;;;;;;8.02;2.25;;;;;;;7.21;100.00;100428.56;4912328;29;20179;-81
2023/03/17 06:00:35;;;;;;;6.03;1.35;;;;;;;7.22;100.00;100427.59;4914215;29;20347;-82
2023/03/17 06:03:03;;;;;;;3.03;1.40;;;;;;;7.25;100.00;100434.66;4873959;29;20042;-81
2023/03/17 06:05:33;;;;;;;3.35;1.60;;;;;;;7.19;100.00;100433.25;4918498;29;20039;-81
2023/03/17 06:07:58;;;;;;;3.17;1.45;;;;;;;7.00;100.00;100422.78;4928172;29;20038;-81
2023/03/17 06:10:24;;;;;;;2.03;1.60;;;;;;;7.11;100.00;100444.69;4926491;29;20040;-82
2023/03/17 06:12:49;;;;;;;3.85;1.48;;;;;;;7.16;100.00;100437.03;4919886;29;20365;-82
2023/03/17 06:15:15;;;;;;;4.03;1.67;;;;;;;7.16;100.00;100447.94;4902272;29;20040;-83
2023/03/17 06:17:44;;;;;;;2.60;1.65;;;;;;;7.28;100.00;100439.88;4888451;29;20095;-82
2023/03/17 06:20:11;;;;;;;2.75;1.70;;;;;;;7.25;100.00;100442.84;4920999;29;20039;-82
2023/03/17 06:22:38;;;;;;;3.05;2.00;;;;;;;7.23;100.00;100456.56;4921469;29;20114;-82
2023/03/17 06:25:04;;;;;;;1.88;1.58;;;;;;;7.30;100.00;100451.53;4912262;29;20023;-83
2023/03/17 06:27:31;;;;;;;6.90;1.95;;;;;;;7.35;100.00;100447.50;4943916;29;20083;-81
2023/03/17 06:29:58;;;;;;;12.48;1.85;;;;;;;7.38;100.00;100445.53;4960395;29;20109;-82
2023/03/17 06:32:23;;;;;;;3.83;1.83;;;;;;;7.47;100.00;100440.28;4931771;29;20054;-81
2023/03/17 06:34:50;;;;;;;5.78;1.80;;;;;;;7.47;100.00;100443.00;4908376;29;20035;-82
2023/03/17 06:37:15;;;;;;;8.30;2.20;;;;;;;7.62;100.00;100449.19;4890589;29;20044;-82
2023/03/17 06:39:41;;;;;;;9.07;2.00;;;;;;;7.70;100.00;100440.44;4904617;29;20036;-81
2023/03/17 06:42:07;;;;;;;6.85;1.85;;;;;;;7.64;100.00;100443.63;4905336;29;20050;-82
2023/03/17 06:44:33;;;;;;;3.03;1.70;;;;;;;7.59;100.00;100429.47;4892842;29;20403;-81
2023/03/17 06:46:59;;;;;;;3.95;1.88;;;;;;;7.65;100.00;100448.97;4933998;29;20443;-83
2023/03/17 06:49:25;;;;;;;5.47;1.70;;;;;;;7.72;100.00;100444.81;4907937;29;20027;-83
2023/03/17 06:51:51;;;;;;;6.13;1.65;;;;;;;7.69;100.00;100445.03;4916348;29;20047;-82
2023/03/17 06:54:17;;;;;;;7.00;1.90;;;;;;;7.83;100.00;100445.88;4920333;29;20484;-79
2023/03/17 06:56:43;;;;;;;4.95;1.58;;;;;;;7.78;100.00;100443.47;4937702;28;20064;-83
2023/03/17 06:59:10;;;;;;;3.85;1.40;;;;;;;7.88;100.00;100439.06;4907101;29;20035;-84
2023/03/17 07:01:38;;;;;;;2.83;1.45;;;;;;;7.96;100.00;100440.38;4905037;29;20040;-84
2023/03/17 07:04:04;;;;;;;5.22;2.00;;;;;;;7.97;100.00;100439.38;4904761;29;20040;-83
2023/03/17 07:06:31;;;;;;;9.82;1.73;;;;;;;7.96;100.00;100440.38;4937390;29;20051;-84
2023/03/17 07:08:57;;;;;;;5.45;1.95;;;;;;;8.09;100.00;100433.88;4938243;29;20043;-84
2023/03/17 07:11:23;;;;;;;4.70;1.73;;;;;;;8.13;100.00;100444.53;4920623;29;20044;-83
2023/03/17 07:13:49;;;;;;;6.35;1.80;;;;;;;8.22;100.00;100444.72;4890971;29;20039;-80
2023/03/17 07:16:18;;;;;;;4.18;1.80;;;;;;;8.24;100.00;100456.38;4925077;29;20035;-80
2023/03/17 07:18:44;;;;;;;9.35;2.25;;;;;;;8.28;100.00;100449.72;4942147;29;20047;-82
2023/03/17 07:21:10;;;;;;;3.25;1.83;;;;;;;8.23;100.00;100449.19;4909969;29;20035;-83
2023/03/17 07:23:36;;;;;;;13.05;2.15;;;;;;;8.25;100.00;100443.63;4917812;29;20044;-84
2023/03/17 07:26:03;;;;;;;3.80;1.77;;;;;;;8.31;100.00;100439.53;4923184;29;20076;-82
2023/03/17 07:28:29;;;;;;;4.60;2.00;;;;;;;8.12;100.00;100401.88;5316597;23;20999;-82
2023/03/17 07:30:56;;;;;;;10.25;2.22;;;;;;;8.46;100.00;100439.28;4977998;23;20051;-84
2023/03/17 07:33:23;;;;;;;3.47;2.00;;;;;;;8.57;100.00;100446.63;4897544;29;20423;-81
2023/03/17 07:35:50;;;;;;;7.45;1.73;;;;;;;8.68;100.00;100439.47;4905884;29;20040;-86
2023/03/17 07:38:18;;;;;;;2.75;2.15;;;;;;;8.78;100.00;100445.94;4910884;29;20531;-87
2023/03/17 07:43:19;;;;;;;9.02;2.13;;;;;;;8.94;100.00;100430.09;4959406;23;20052;-85
2023/03/17 07:45:46;;;;;;;8.13;2.17;;;;;;;9.08;100.00;100425.41;4918354;29;20038;-85
2023/03/17 07:48:12;;;;;;;4.05;1.95;;;;;;;9.17;100.00;100427.41;4889603;29;20040;-83
2023/03/17 07:53:31;;;;;;;4.32;1.85;;;;;;;9.27;100.00;100446.66;4932590;29;20504;-84
2023/03/17 07:55:57;;;;;;;4.30;2.15;;;;;;;9.27;100.00;100444.78;4893092;29;20040;-84
2023/03/17 07:58:24;;;;;;;5.03;2.10;;;;;;;9.25;100.00;100435.84;4981328;23;20057;-82
2023/03/17 08:00:50;;;;;;;7.03;1.75;;;;;;;9.27;100.00;100406.53;4924911;29;20044;-82
2023/03/17 08:03:16;;;;;;;6.63;2.50;;;;;;;9.55;99.52;100435.22;5288842;23;20059;-82
2023/03/17 08:05:43;;;;;;;2.45;1.77;;;;;;;9.66;99.30;100436.22;4871373;29;20547;-81
2023/03/17 08:08:11;;;;;;;3.55;1.83;;;;;;;9.64;98.87;100444.53;4887741;29;20089;-81
2023/03/17 08:10:37;;;;;;;3.25;2.17;;;;;;;9.85;97.99;100438.28;4885694;29;20044;-79
2023/03/17 08:13:02;;;;;;;4.38;1.90;;;;;;;9.82;97.40;100447.63;4887022;29;20033;-81
2023/03/17 08:15:30;;;;;;;2.97;2.17;;;;;;;9.97;97.64;100450.94;4895500;29;20075;-81
2023/03/17 08:17:56;;;;;;;4.88;2.22;;;;;;;10.11;97.60;100458.84;4892696;29;20032;-79
2023/03/17 08:20:21;;;;;;;3.72;2.13;;;;;;;10.04;96.81;100454.03;4891884;29;20048;-82
2023/03/17 08:22:47;;;;;;;11.65;2.88;;;;;;;10.24;97.29;100446.88;4891748;29;20052;-80
2023/03/17 08:25:13;;;;;;;4.15;2.25;;;;;;;10.23;96.60;100448.75;4905955;29;20104;-81
2023/03/17 08:27:39;;;;;;;6.15;2.33;;;;;;;10.27;97.48;100449.38;4875663;29;20040;-79
2023/03/17 08:30:05;;;;;;;5.72;2.78;;;;;;;10.59;96.67;100446.66;4876620;29;20100;-81
2023/03/17 08:32:32;;;;;;;12.45;2.97;;;;;;;10.61;96.30;100427.38;4876883;29;20044;-80
2023/03/17 08:34:57;;;;;;;8.27;2.83;;;;;;;10.87;93.79;100429.69;4905861;29;20096;-80
2023/03/17 08:37:23;;;;;;;10.73;2.65;;;;;;;10.92;92.71;100427.41;4906645;29;20056;-80
2023/03/17 08:39:49;;;;;;;2.97;1.85;;;;;;;11.08;92.42;100432.41;4890084;29;20048;-81
2023/03/17 08:42:14;;;;;;;6.80;2.33;;;;;;;11.35;91.20;100424.47;4889714;29;20037;-81
2023/03/17 08:44:40;;;;;;;5.28;2.20;;;;;;;11.39;91.17;100425.94;4874247;29;20055;-80
2023/03/17 08:47:06;;;;;;;7.18;2.40;;;;;;;11.39;90.82;100425.94;4887136;29;20021;-81
2023/03/17 08:49:33;;;;;;;6.63;2.05;;;;;;;11.62;90.06;100433.09;4888760;29;20045;-81
2023/03/17 08:52:00;;;;;;;5.53;2.33;;;;;;;12.07;88.68;100432.69;4886637;29;20040;-81
2023/03/17 08:54:26;;;;;;;9.27;2.80;;;;;;;12.24;86.52;100414.66;4894619;29;20039;-80
2023/03/17 08:56:52;;;;;;;4.40;2.20;;;;;;;12.32;85.00;100418.41;4888247;29;20041;-80
2023/03/17 08:59:17;;;;;;;7.65;2.33;;;;;;;12.52;83.38;100431.28;4904520;29;20122;-81
2023/03/17 09:01:44;;;;;;;5.88;2.25;;;;;;;12.74;82.58;100428.25;4904686;29;20039;-80
2023/03/17 09:04:09;;;;;;;3.78;2.13;;;;;;;12.76;79.95;100431.69;4890833;29;20073;-80
2023/03/17 09:06:36;;;;;;;9.27;2.00;;;;;;;12.96;81.45;100428.91;4889544;29;20056;-80
2023/03/17 09:09:02;;;;;;;3.38;1.95;;;;;;;13.21;80.27;100432.91;4873011;29;20107;-81
2023/03/17 09:11:31;;;;;;;5.32;2.40;;;;;;;13.33;78.54;100429.00;4905056;29;20041;-80
2023/03/17 09:13:57;;;;;;;3.05;1.80;;;;;;;13.64;77.99;100414.09;4905194;29;20025;-81
2023/03/17 09:16:27;;;;;;;6.88;2.00;;;;;;;13.32;75.67;100424.50;4905934;29;20027;-80
2023/03/17 09:18:52;;;;;;;7.53;1.95;;;;;;;13.38;75.83;100426.66;4903999;29;20036;-80
2023/03/17 09:21:18;;;;;;;3.67;1.73;;;;;;;13.63;74.73;100435.25;4905405;29;20051;-80
2023/03/17 09:23:44;;;;;;;3.30;1.92;;;;;;;14.00;74.89;100438.94;4888233;29;20105;-80
2023/03/17 09:26:11;;;;;;;5.10;1.92;;;;;;;14.02;75.17;100429.53;4903996;29;20055;-81
2023/03/17 09:28:37;;;;;;;5.97;1.92;;;;;;;14.27;70.79;100429.81;4920188;29;20024;-80
2023/03/17 09:31:10;;;;;;;4.45;1.73;;;;;;;14.59;70.00;100421.00;4904738;29;20081;-80
2023/03/17 09:33:36;;;;;;;10.07;3.20;;;;;;;14.74;68.67;100425.94;4886108;29;20056;-80
2023/03/17 09:36:02;;;;;;;7.50;2.28;;;;;;;14.69;69.01;100443.84;4904766;29;20037;-80
2023/03/17 09:38:28;;;;;;;3.78;1.95;;;;;;;14.38;70.17;100443.34;4905950;29;20064;-79
2023/03/17 09:41:03;;;;;;;7.63;2.08;;;;;;;14.70;70.58;100440.03;4889724;29;20041;-81
2023/03/17 09:43:28;;;;;;;8.20;2.10;;;;;;;15.16;68.96;100439.88;4920605;29;20041;-81
2023/03/17 09:45:55;;;;;;;3.08;1.98;;;;;;;15.35;66.25;100440.72;4905155;29;20108;-81
2023/03/17 09:48:36;;;;;;;6.13;2.08;;;;;;;15.76;66.34;100436.31;4873528;29;20104;-81
2023/03/17 09:51:20;;;;;;;2.83;1.90;;;;;;;15.81;64.58;100422.00;4921000;29;20033;-80
2023/03/17 09:54:00;;;;;;;5.95;2.08;;;;;;;15.86;64.29;100422.38;4870689;29;20037;-81
2023/03/17 09:56:28;;;;;;;4.45;2.22;;;;;;;15.17;65.94;100422.31;4904858;29;20088;-80
2023/03/17 09:59:26;;;;;;;4.18;2.10;;;;;;;15.41;66.29;100423.50;4888683;29;20032;-80
2023/03/17 10:01:52;;;;;;;5.75;2.33;;;;;;;15.35;66.89;100421.41;4884549;29;20052;-81
2023/03/17 10:04:17;;;;;;;10.38;1.92;;;;;;;14.94;67.76;100413.72;4889893;29;20033;-80
2023/03/17 10:06:45;;;;;;;3.50;2.30;;;;;;;14.91;68.29;100424.22;4919813;29;20067;-80
2023/03/17 10:09:39;;;;;;;3.20;2.00;;;;;;;14.82;67.22;100418.63;4874867;29;20037;-79
2023/03/17 10:12:39;;;;;;;6.25;3.38;;;;;;;14.90;68.38;100417.81;4921616;29;20047;-80
2023/03/17 10:15:40;;;;;;;4.63;2.47;;;;;;;15.04;69.70;100424.66;4921546;29;20057;-81
2023/03/17 10:18:14;;;;;;;11.95;3.95;;;;;;;15.29;66.72;100425.66;4888144;29;20056;-81
2023/03/17 10:20:53;;;;;;;4.68;2.20;;;;;;;15.30;68.01;100440.31;4920737;29;20021;-81
2023/03/17 10:23:23;;;;;;;8.15;2.40;;;;;;;15.50;68.07;100444.59;4905568;29;20125;-80
2023/03/17 10:25:48;;;;;;;5.05;2.33;;;;;;;15.66;68.20;100451.22;4904530;29;20052;-81
2023/03/17 10:28:26;;;;;;;6.82;2.47;;;;;;;15.56;67.85;100448.56;4874972;29;20065;-81
2023/03/17 10:30:52;;;;;;;11.02;2.60;;;;;;;15.40;68.63;100443.84;4905014;29;20105;-81
2023/03/17 10:33:18;;;;;;;5.40;2.25;;;;;;;15.90;67.30;100440.31;4889460;29;20103;-81
2023/03/17 10:35:44;;;;;;;9.27;2.60;;;;;;;15.92;67.46;100438.28;4903827;29;20033;-81
2023/03/17 10:38:28;;;;;;;5.20;2.70;;;;;;;15.91;68.00;100425.50;4872962;29;20123;-81
2023/03/17 10:40:57;;;;;;;3.60;2.42;;;;;;;15.83;66.90;100428.22;4889433;29;20044;-79
2023/03/17 10:43:27;;;;;;;8.25;2.65;;;;;;;15.61;68.83;100419.47;4915804;29;20029;-81
2023/03/17 10:46:06;;;;;;;4.63;2.63;;;;;;;15.62;68.63;100428.59;4919019;29;20047;-81
2023/03/17 10:48:37;;;;;;;7.32;2.50;;;;;;;15.40;68.11;100408.00;4920472;29;20111;-81
2023/03/17 10:51:10;;;;;;;7.43;2.75;;;;;;;15.37;68.43;100411.06;4920243;29;20069;-81
2023/03/17 10:53:42;;;;;;;3.83;2.70;;;;;;;15.62;69.08;100404.63;4904701;29;20040;-80
2023/03/17 10:56:23;;;;;;;4.82;2.40;;;;;;;15.39;71.74;100406.25;4919528;29;20063;-80
2023/03/17 10:58:50;;;;;;;5.82;2.90;;;;;;;15.73;70.38;100386.06;4904428;29;20096;-81
2023/03/17 11:01:49;;;;;;;3.80;2.40;;;;;;;15.99;68.49;100386.00;4904078;29;20033;-81
2023/03/17 11:04:36;;;;;;;8.52;3.10;;;;;;;15.55;69.34;100384.25;4905892;29;20095;-81
2023/03/17 11:07:09;;;;;;;5.25;2.50;;;;;;;15.79;70.68;100386.28;4902963;29;20104;-81
2023/03/17 11:09:36;;;;;;;7.43;2.90;;;;;;;15.78;68.87;100398.34;4904807;29;20027;-81
2023/03/17 11:12:07;;;;;;;6.25;2.42;;;;;;;15.89;68.75;100397.19;4904220;29;20416;-81
2023/03/17 11:14:34;;;;;;;6.85;2.50;;;;;;;15.85;69.87;100408.72;4918683;29;20035;-81
2023/03/17 11:17:13;;;;;;;10.63;2.67;;;;;;;15.88;70.96;100411.16;4887956;29;20021;-81
2023/03/17 11:20:23;;;;;;;4.15;2.40;;;;;;;15.64;69.95;100407.22;4918729;29;20064;-82
2023/03/17 11:23:05;;;;;;;5.28;2.67;;;;;;;15.62;71.66;100378.94;4900684;29;20032;-81
2023/03/17 11:25:35;;;;;;;7.47;2.85;;;;;;;15.85;69.47;100370.94;4883138;29;20436;-82
2023/03/17 11:28:19;;;;;;;8.00;2.80;;;;;;;16.66;69.34;100393.31;4892527;29;20044;-80
2023/03/17 11:31:04;;;;;;;10.25;3.15;;;;;;;16.80;67.80;100384.34;4886483;29;20064;-80
2023/03/17 11:33:40;;;;;;;5.15;2.67;;;;;;;17.01;64.82;100381.06;4888055;29;20036;-82
2023/03/17 11:36:33;;;;;;;5.75;2.58;;;;;;;16.84;65.91;100395.91;4920014;29;20045;-82